Weather at Ainsworth Regional Airport

Public forecast

Using degrees Fahrenheit for public forecast. Weather courtesy of forecast.io.

Current aviation weather report (METAR) for Ainsworth Regional Airport

Retrieved 2020/09/21 13:35 UTC (0 seconds ago):

KANW 211335Z AUTO 23005KT 7SM CLR 15/13 A3008 RMK AO2 T01490129

Closest aviation forecast (TAF) to Ainsworth Regional Airport

Closest forecast is Miller Field, 29.7 nm (54.9 km) NW. Retrieved 2020/09/21 12:24 UTC (47 minutes ago):

TAF KVTN 211123Z 2112/2212 29004KT P6SM SCT150 FM211700 07007KT P6SM FEW250